createdAt,value
2018-09-26T00:00:39.856Z,3.93
2018-09-26T00:03:14.520Z,3.89
2018-09-26T00:05:43.664Z,3.87
2018-09-26T00:08:12.806Z,3.82
2018-09-26T00:10:42.231Z,3.78
2018-09-26T00:13:11.357Z,3.73
2018-09-26T00:15:40.487Z,3.66
2018-09-26T00:18:10.218Z,3.61
2018-09-26T00:20:41.101Z,3.57
2018-09-26T00:23:10.209Z,3.59
2018-09-26T00:25:39.629Z,3.55
2018-09-26T00:28:09.470Z,3.54
2018-09-26T00:30:38.662Z,3.57
2018-09-26T00:33:08.292Z,3.53
2018-09-26T00:35:37.408Z,3.49
2018-09-26T00:38:06.626Z,3.49
2018-09-26T00:40:36.092Z,3.49
2018-09-26T00:43:05.226Z,3.50
2018-09-26T00:45:34.584Z,3.49
2018-09-26T00:48:04.077Z,3.48
2018-09-26T00:50:33.225Z,3.43
2018-09-26T00:53:02.374Z,3.40
2018-09-26T00:55:31.796Z,3.37
2018-09-26T00:58:00.961Z,3.33
2018-09-26T01:00:30.131Z,3.30
2018-09-26T01:02:59.595Z,3.25
2018-09-26T01:05:28.704Z,3.23
2018-09-26T01:07:57.819Z,3.20
2018-09-26T01:10:27.269Z,3.18
2018-09-26T01:12:56.693Z,3.15
2018-09-26T01:15:25.836Z,3.10
2018-09-26T01:17:56.016Z,3.04
2018-09-26T01:20:25.148Z,3.02
2018-09-26T01:22:54.437Z,2.99
2018-09-26T01:25:23.611Z,2.99
2018-09-26T01:27:52.868Z,2.98
2018-09-26T01:30:22.442Z,3.02
2018-09-26T01:32:51.573Z,2.98
2018-09-26T01:35:20.743Z,2.86
2018-09-26T01:37:49.873Z,2.93
2018-09-26T01:40:19.052Z,2.92
2018-09-26T01:42:48.204Z,2.93
2018-09-26T01:45:17.335Z,2.93
2018-09-26T01:47:46.790Z,2.92
2018-09-26T01:50:15.911Z,2.92
2018-09-26T01:52:45.069Z,2.90
2018-09-26T01:55:14.438Z,2.89
2018-09-26T01:57:43.594Z,2.77
2018-09-26T02:00:12.857Z,2.63
2018-09-26T02:02:42.041Z,2.62
2018-09-26T02:05:11.282Z,2.63
2018-09-26T02:07:40.479Z,2.63
2018-09-26T02:10:09.942Z,2.66
2018-09-26T02:12:39.071Z,2.66
2018-09-26T02:15:08.868Z,2.66
2018-09-26T02:17:38.069Z,2.64
2018-09-26T02:20:07.412Z,2.61
2018-09-26T02:22:36.831Z,2.59
2018-09-26T02:25:06.188Z,2.55
2018-09-26T02:27:36.717Z,2.54
2018-09-26T02:30:05.903Z,2.47
2018-09-26T02:32:35.086Z,2.45
2018-09-26T02:35:04.258Z,2.43
2018-09-26T02:37:34.001Z,2.42
2018-09-26T02:40:03.153Z,2.39
2018-09-26T02:42:32.301Z,2.36
2018-09-26T02:45:01.427Z,2.37
2018-09-26T02:47:30.598Z,2.39
2018-09-26T02:49:59.739Z,2.38
2018-09-26T02:52:28.885Z,2.31
2018-09-26T02:54:58.070Z,2.29
2018-09-26T02:57:27.208Z,2.29
2018-09-26T02:59:56.344Z,2.24
2018-09-26T03:02:25.504Z,2.17
2018-09-26T03:04:55.095Z,2.10
2018-09-26T03:07:24.213Z,2.12
2018-09-26T03:09:53.368Z,2.17
2018-09-26T03:12:22.600Z,2.15
2018-09-26T03:14:52.005Z,2.16
2018-09-26T03:17:21.265Z,2.24
2018-09-26T03:19:50.425Z,2.29
2018-09-26T03:22:19.598Z,2.31
2018-09-26T03:24:48.735Z,2.33
2018-09-26T03:27:17.908Z,2.37
2018-09-26T03:29:47.349Z,2.31
2018-09-26T03:32:16.501Z,2.19
2018-09-26T03:34:45.648Z,2.17
2018-09-26T03:37:14.873Z,2.16
2018-09-26T03:39:44.007Z,2.11
2018-09-26T03:42:13.176Z,2.09
2018-09-26T03:44:42.293Z,2.10
2018-09-26T03:47:11.589Z,2.02
2018-09-26T03:49:40.718Z,1.97
2018-09-26T03:52:10.186Z,2.00
2018-09-26T03:54:39.462Z,2.04
2018-09-26T03:57:08.770Z,2.11
2018-09-26T03:59:37.944Z,2.16
2018-09-26T04:02:07.138Z,2.13
2018-09-26T04:04:36.425Z,2.13
2018-09-26T04:07:05.888Z,2.15
2018-09-26T04:09:35.086Z,2.15
2018-09-26T04:12:04.855Z,2.10
2018-09-26T04:14:33.961Z,2.04
2018-09-26T04:17:03.156Z,2.03
2018-09-26T04:19:32.298Z,1.95
2018-09-26T04:22:01.441Z,1.90
2018-09-26T04:24:30.637Z,1.88
2018-09-26T04:26:59.982Z,1.86
2018-09-26T04:29:29.078Z,1.82
2018-09-26T04:31:59.301Z,1.87
2018-09-26T04:34:28.425Z,1.88
2018-09-26T04:36:57.580Z,1.89
2018-09-26T04:39:26.998Z,1.90
2018-09-26T04:41:56.188Z,1.92
2018-09-26T04:44:25.361Z,1.96
2018-09-26T04:46:54.721Z,1.97
2018-09-26T04:49:23.842Z,1.96
2018-09-26T04:51:53.012Z,1.99
2018-09-26T04:54:22.490Z,1.97
2018-09-26T04:56:51.981Z,1.92
2018-09-26T04:59:21.138Z,1.89
2018-09-26T05:01:50.590Z,1.90
2018-09-26T05:04:19.863Z,1.92
2018-09-26T05:06:49.243Z,1.94
2018-09-26T05:09:18.703Z,1.98
2018-09-26T05:11:48.168Z,1.98
2018-09-26T05:14:17.335Z,1.98
2018-09-26T05:16:46.722Z,2.01
2018-09-26T05:19:15.854Z,2.09
2018-09-26T05:21:45.017Z,2.18
2018-09-26T05:24:14.517Z,2.25
2018-09-26T05:26:43.667Z,2.30
2018-09-26T05:29:12.839Z,2.36
2018-09-26T05:31:42.338Z,2.32
2018-09-26T05:34:11.473Z,2.32
2018-09-26T05:36:40.605Z,2.34
2018-09-26T05:39:11.650Z,2.37
2018-09-26T05:41:40.816Z,2.43
2018-09-26T05:44:09.964Z,2.49
2018-09-26T05:46:39.537Z,2.54
2018-09-26T05:49:09.077Z,2.61
2018-09-26T05:51:38.207Z,2.68
2018-09-26T05:54:07.750Z,2.73
2018-09-26T05:56:36.907Z,2.81
2018-09-26T05:59:06.202Z,2.95
2018-09-26T06:01:35.613Z,3.06
2018-09-26T06:04:05.126Z,3.19
2018-09-26T06:06:34.294Z,3.39
2018-09-26T06:09:04.024Z,3.53
2018-09-26T06:11:33.216Z,3.71
2018-09-26T06:14:03.018Z,3.88
2018-09-26T06:16:32.528Z,4.06
2018-09-26T06:19:01.775Z,4.14
2018-09-26T06:21:30.881Z,4.23
2018-09-26T06:24:00.653Z,4.37
2018-09-26T06:26:29.819Z,4.41
2018-09-26T06:28:59.028Z,4.46
2018-09-26T06:31:28.462Z,4.42
2018-09-26T06:33:57.615Z,4.48
2018-09-26T06:36:27.025Z,4.58
2018-09-26T06:38:56.701Z,4.70
2018-09-26T06:41:25.843Z,4.85
2018-09-26T06:43:54.999Z,4.98
2018-09-26T06:46:24.478Z,5.05
2018-09-26T06:48:53.679Z,5.06
2018-09-26T06:51:22.839Z,5.15
2018-09-26T06:53:52.311Z,5.11
2018-09-26T06:56:21.450Z,5.16
2018-09-26T06:58:50.613Z,5.27
2018-09-26T07:01:20.037Z,5.40
2018-09-26T07:03:49.180Z,5.52
2018-09-26T07:06:18.352Z,5.58
2018-09-26T07:08:48.216Z,5.77
2018-09-26T07:11:17.697Z,5.96
2018-09-26T07:13:46.905Z,6.13
2018-09-26T07:16:16.072Z,6.31
2018-09-26T07:18:45.238Z,6.42
2018-09-26T07:21:14.406Z,6.71
2018-09-26T07:23:43.634Z,6.94
2018-09-26T07:26:12.786Z,7.05
2018-09-26T07:28:41.922Z,7.17
2018-09-26T07:31:11.101Z,7.50
2018-09-26T07:33:40.333Z,7.70
2018-09-26T07:36:09.488Z,7.74
2018-09-26T07:38:39.000Z,7.83
2018-09-26T07:41:08.574Z,8.00
2018-09-26T07:43:37.692Z,8.15
2018-09-26T07:46:07.401Z,8.36
2018-09-26T07:48:36.663Z,8.48
2018-09-26T07:51:06.136Z,8.66
2018-09-26T07:53:35.570Z,8.75
2018-09-26T07:56:04.949Z,9.12
2018-09-26T07:58:34.107Z,9.45
2018-09-26T08:01:03.643Z,9.64
2018-09-26T08:03:32.809Z,9.77
2018-09-26T08:06:02.029Z,10.04
2018-09-26T08:08:32.342Z,10.07
2018-09-26T08:11:02.557Z,10.05
2018-09-26T08:13:31.777Z,10.23
2018-09-26T08:16:02.156Z,10.50
2018-09-26T08:18:31.997Z,10.81
2018-09-26T08:21:01.141Z,11.01
2018-09-26T08:23:30.903Z,11.03
2018-09-26T08:26:00.415Z,10.95
2018-09-26T08:28:29.598Z,11.27
2018-09-26T08:30:58.955Z,11.49
2018-09-26T08:33:28.165Z,11.71
2018-09-26T08:35:57.965Z,12.04
2018-09-26T08:38:27.225Z,12.38
2018-09-26T08:40:56.452Z,12.32
2018-09-26T08:43:25.777Z,12.54
2018-09-26T08:45:55.150Z,12.61
2018-09-26T08:48:24.296Z,12.61
2018-09-26T08:50:53.441Z,12.69
2018-09-26T08:53:24.282Z,12.86
2018-09-26T08:55:53.428Z,13.05
2018-09-26T08:58:22.602Z,13.02
2018-09-26T09:00:54.053Z,13.16
2018-09-26T09:03:23.241Z,13.33
2018-09-26T09:05:52.885Z,13.49
2018-09-26T09:08:22.050Z,13.39
2018-09-26T09:10:51.504Z,13.45
2018-09-26T09:13:20.705Z,13.45
2018-09-26T09:15:49.861Z,13.67
2018-09-26T09:18:19.058Z,13.86
2018-09-26T09:20:48.269Z,14.08
2018-09-26T09:23:17.831Z,14.10
2018-09-26T09:25:46.959Z,14.00
2018-09-26T09:28:16.436Z,13.97
2018-09-26T09:30:45.676Z,14.29
2018-09-26T09:33:15.184Z,14.35
2018-09-26T09:35:44.400Z,14.42
2018-09-26T09:38:13.726Z,14.63
2018-09-26T09:40:42.860Z,14.81
2018-09-26T09:43:12.474Z,14.75
2018-09-26T09:45:41.788Z,14.88
2018-09-26T09:48:11.487Z,14.72
2018-09-26T09:50:40.699Z,14.95
2018-09-26T09:53:10.702Z,14.82
2018-09-26T09:55:40.102Z,14.88
2018-09-26T09:58:09.305Z,15.05
2018-09-26T10:00:43.766Z,14.72
2018-09-26T10:03:12.997Z,14.73
2018-09-26T10:05:42.136Z,14.60
2018-09-26T10:08:11.323Z,14.58
2018-09-26T10:10:41.006Z,14.58
2018-09-26T10:13:10.126Z,14.41
2018-09-26T10:15:39.635Z,14.58
2018-09-26T10:18:09.201Z,14.91
2018-09-26T10:20:38.391Z,14.90
2018-09-26T10:23:07.751Z,15.23
2018-09-26T10:25:37.078Z,14.99
2018-09-26T10:28:06.669Z,15.13
2018-09-26T10:30:35.879Z,15.10
2018-09-26T10:33:05.082Z,15.37
2018-09-26T10:35:34.320Z,15.42
2018-09-26T10:38:03.532Z,15.40
2018-09-26T10:40:32.702Z,15.29
2018-09-26T10:43:01.960Z,15.38
2018-09-26T10:45:31.385Z,15.38
2018-09-26T10:48:00.890Z,15.39
2018-09-26T10:50:30.043Z,15.57
2018-09-26T10:52:59.254Z,15.63
2018-09-26T10:55:28.494Z,15.73
2018-09-26T10:57:57.820Z,16.31
2018-09-26T11:00:27.130Z,16.40
2018-09-26T11:02:56.384Z,16.93
2018-09-26T11:05:25.601Z,17.11
2018-09-26T11:07:54.789Z,17.42
2018-09-26T11:10:24.055Z,17.22
2018-09-26T11:12:53.146Z,17.04
2018-09-26T11:15:23.309Z,17.10
2018-09-26T11:17:53.050Z,17.04
2018-09-26T11:20:22.652Z,17.46
2018-09-26T11:22:52.297Z,16.99
2018-09-26T11:25:21.412Z,17.41
2018-09-26T11:27:50.580Z,17.43
2018-09-26T11:30:19.818Z,17.64
2018-09-26T11:32:49.027Z,17.51
2018-09-26T11:35:18.262Z,17.42
2018-09-26T11:37:47.461Z,17.68
2018-09-26T11:40:16.904Z,18.03
2018-09-26T11:42:47.003Z,17.98
2018-09-26T11:45:16.243Z,17.97
2018-09-26T11:47:45.619Z,17.96
2018-09-26T11:50:15.353Z,18.09
2018-09-26T11:52:44.704Z,17.78
2018-09-26T11:55:14.097Z,17.82
2018-09-26T11:57:43.543Z,17.80
2018-09-26T12:00:12.688Z,17.84
2018-09-26T12:02:42.014Z,18.04
2018-09-26T12:05:11.201Z,17.84
2018-09-26T12:07:40.433Z,17.55
2018-09-26T12:10:09.665Z,17.37
2018-09-26T12:12:38.813Z,17.57
2018-09-26T12:15:08.266Z,17.57
2018-09-26T12:17:37.410Z,17.64
2018-09-26T12:20:07.019Z,17.50
2018-09-26T12:22:37.761Z,17.35
2018-09-26T12:25:07.729Z,17.35
2018-09-26T12:27:37.102Z,17.44
2018-09-26T12:30:07.955Z,17.05
2018-09-26T12:32:37.503Z,16.84
2018-09-26T12:35:06.845Z,17.24
2018-09-26T12:37:36.024Z,17.26
2018-09-26T12:40:06.921Z,17.36
2018-09-26T12:42:38.145Z,17.52
2018-09-26T12:45:07.634Z,17.27
2018-09-26T12:47:36.851Z,17.45
2018-09-26T12:50:06.823Z,17.73
2018-09-26T12:52:36.001Z,17.83
2018-09-26T12:55:05.348Z,17.71
2018-09-26T12:57:34.614Z,17.61
2018-09-26T13:00:04.010Z,17.56
2018-09-26T13:02:33.334Z,17.65
2018-09-26T13:05:02.527Z,17.65
2018-09-26T13:07:31.763Z,17.67
2018-09-26T13:10:01.018Z,17.59
2018-09-26T13:12:30.261Z,17.75
2018-09-26T13:14:59.575Z,17.68
2018-09-26T13:17:28.832Z,17.45
2018-09-26T13:19:58.253Z,17.46
2018-09-26T13:22:27.506Z,17.43
2018-09-26T13:24:56.716Z,17.53
2018-09-26T13:27:25.977Z,17.62
2018-09-26T13:29:55.229Z,17.55
2018-09-26T13:32:25.584Z,17.36
2018-09-26T13:34:54.658Z,17.48
2018-09-26T13:37:25.205Z,17.55
2018-09-26T13:39:54.347Z,17.42
2018-09-26T13:42:24.083Z,17.61
2018-09-26T13:44:53.494Z,17.77
2018-09-26T13:47:22.678Z,17.67
2018-09-26T13:49:52.535Z,17.68
2018-09-26T13:52:21.733Z,17.77
2018-09-26T13:54:51.027Z,17.79
2018-09-26T13:57:20.203Z,17.80
2018-09-26T13:59:49.407Z,18.01
2018-09-26T14:02:18.584Z,17.92
2018-09-26T14:04:47.727Z,17.80
2018-09-26T14:07:16.891Z,17.75
2018-09-26T14:09:46.055Z,17.71
2018-09-26T14:12:15.318Z,17.62
2018-09-26T14:14:44.682Z,17.58
2018-09-26T14:17:13.995Z,17.68
2018-09-26T14:19:43.137Z,17.61
2018-09-26T14:22:12.401Z,17.48
2018-09-26T14:24:41.464Z,17.45
2018-09-26T14:27:10.640Z,17.58
2018-09-26T14:29:39.815Z,17.65
2018-09-26T14:32:09.233Z,17.62
2018-09-26T14:34:38.768Z,17.65
2018-09-26T14:37:08.398Z,17.47
2018-09-26T14:39:37.812Z,17.45
2018-09-26T14:42:06.855Z,17.30
2018-09-26T14:44:36.173Z,17.28
2018-09-26T14:47:05.556Z,17.27
2018-09-26T14:49:34.880Z,17.36
2018-09-26T14:52:04.116Z,17.32
2018-09-26T14:54:33.273Z,17.29
2018-09-26T14:57:02.536Z,17.25
2018-09-26T14:59:31.747Z,17.20
2018-09-26T15:02:00.967Z,17.15
2018-09-26T15:04:30.241Z,17.07
2018-09-26T15:06:59.454Z,17.01
2018-09-26T15:09:28.635Z,16.99
2018-09-26T15:11:57.840Z,16.91
2018-09-26T15:14:27.035Z,16.90
2018-09-26T15:16:56.977Z,16.91
2018-09-26T15:19:26.257Z,16.79
2018-09-26T15:21:55.429Z,16.74
2018-09-26T15:24:24.912Z,16.75
2018-09-26T15:26:54.082Z,16.65
2018-09-26T15:29:23.270Z,16.61
2018-09-26T15:31:52.446Z,16.51
2018-09-26T15:34:21.752Z,16.42
2018-09-26T15:36:50.974Z,16.33
2018-09-26T15:39:20.453Z,16.38
2018-09-26T15:41:49.977Z,16.35
2018-09-26T15:44:19.838Z,16.32
2018-09-26T15:46:49.496Z,16.22
2018-09-26T15:49:18.736Z,16.18
2018-09-26T15:51:48.013Z,16.11
2018-09-26T15:54:18.442Z,16.11
2018-09-26T15:56:47.644Z,16.16
2018-09-26T15:59:16.833Z,16.11
2018-09-26T16:01:46.009Z,16.15
2018-09-26T16:04:15.440Z,16.14
2018-09-26T16:06:44.630Z,16.16
2018-09-26T16:09:14.585Z,16.06
2018-09-26T16:11:43.725Z,15.96
2018-09-26T16:14:13.112Z,15.84
2018-09-26T16:16:42.231Z,15.66
2018-09-26T16:19:11.856Z,15.49
2018-09-26T16:21:40.944Z,15.37
2018-09-26T16:24:10.150Z,15.28
2018-09-26T16:26:39.345Z,15.14
2018-09-26T16:29:08.884Z,15.03
2018-09-26T16:31:38.125Z,14.90
2018-09-26T16:34:07.391Z,14.81
2018-09-26T16:36:36.749Z,14.70
2018-09-26T16:39:09.282Z,14.59
2018-09-26T16:41:38.964Z,14.50
2018-09-26T16:44:08.168Z,14.39
2018-09-26T16:46:37.448Z,14.24
2018-09-26T16:49:07.052Z,14.13
2018-09-26T16:51:36.202Z,13.96
2018-09-26T16:54:05.993Z,13.82
2018-09-26T16:56:35.118Z,13.70
2018-09-26T16:59:04.368Z,13.56
2018-09-26T17:01:33.509Z,13.45
2018-09-26T17:04:02.639Z,13.34
2018-09-26T17:06:31.811Z,13.20
2018-09-26T17:09:01.012Z,13.01
2018-09-26T17:11:30.995Z,12.85
2018-09-26T17:14:00.126Z,12.74
2018-09-26T17:16:29.518Z,12.63
2018-09-26T17:18:59.150Z,12.58
2018-09-26T17:21:28.861Z,12.47
2018-09-26T17:23:58.019Z,12.38
2018-09-26T17:26:27.521Z,12.19
2018-09-26T17:28:56.595Z,12.06
2018-09-26T17:31:26.341Z,11.98
2018-09-26T17:33:55.693Z,11.90
2018-09-26T17:36:25.913Z,11.82
2018-09-26T17:38:55.912Z,11.72
2018-09-26T17:41:25.457Z,11.51
2018-09-26T17:43:54.649Z,11.48
2018-09-26T17:46:23.847Z,11.40
2018-09-26T17:48:53.354Z,11.40
2018-09-26T17:51:22.526Z,11.36
2018-09-26T17:53:51.907Z,11.35
2018-09-26T17:56:21.099Z,11.21
2018-09-26T17:58:50.273Z,11.08
2018-09-26T18:01:19.821Z,10.98
2018-09-26T18:03:50.766Z,10.91
2018-09-26T18:06:20.725Z,10.89
2018-09-26T18:08:49.909Z,10.85
2018-09-26T18:11:19.595Z,10.91
2018-09-26T18:13:49.310Z,10.92
2018-09-26T18:16:18.591Z,10.94
2018-09-26T18:18:48.919Z,10.94
2018-09-26T18:21:18.564Z,10.97
2018-09-26T18:23:48.556Z,10.96
2018-09-26T18:26:18.050Z,10.95
2018-09-26T18:28:47.191Z,10.92
2018-09-26T18:31:17.601Z,10.92
2018-09-26T18:33:46.677Z,10.92
2018-09-26T18:36:16.533Z,10.94
2018-09-26T18:38:45.936Z,10.93
2018-09-26T18:41:15.125Z,10.89
2018-09-26T18:43:44.378Z,10.87
2018-09-26T18:46:14.637Z,10.81
2018-09-26T18:48:43.836Z,10.80
2018-09-26T18:51:13.899Z,10.77
2018-09-26T18:53:43.021Z,10.74
2018-09-26T18:56:12.144Z,10.72
2018-09-26T18:58:42.148Z,10.71
2018-09-26T19:01:11.623Z,10.59
2018-09-26T19:03:40.745Z,10.52
2018-09-26T19:06:13.254Z,10.50
2018-09-26T19:08:42.378Z,10.50
2018-09-26T19:11:11.827Z,10.44
2018-09-26T19:13:40.987Z,10.43
2018-09-26T19:16:10.141Z,10.38
2018-09-26T19:18:39.279Z,10.33
2018-09-26T19:21:08.747Z,10.27
2018-09-26T19:23:38.002Z,10.21
2018-09-26T19:26:07.710Z,10.13
2018-09-26T19:28:37.598Z,10.10
2018-09-26T19:31:07.018Z,10.04
2018-09-26T19:33:36.297Z,9.99
2018-09-26T19:36:05.453Z,9.91
2018-09-26T19:38:34.633Z,9.90
2018-09-26T19:41:03.773Z,9.75
2018-09-26T19:43:32.886Z,9.84
2018-09-26T19:46:02.365Z,9.85
2018-09-26T19:48:31.967Z,9.85
2018-09-26T19:51:01.776Z,9.85
2018-09-26T19:53:30.859Z,9.84
2018-09-26T19:56:00.747Z,9.80
2018-09-26T19:58:30.197Z,9.74
2018-09-26T20:00:59.318Z,9.65
2018-09-26T20:03:29.268Z,9.59
2018-09-26T20:05:58.406Z,9.59
2018-09-26T20:08:27.904Z,9.60
2018-09-26T20:10:57.092Z,9.59
2018-09-26T20:13:26.543Z,9.60
2018-09-26T20:15:55.686Z,9.61
2018-09-26T20:18:24.810Z,9.61
2018-09-26T20:20:54.265Z,9.61
2018-09-26T20:23:23.548Z,9.62
2018-09-26T20:25:52.573Z,9.62
2018-09-26T20:28:22.498Z,9.59
2018-09-26T20:30:51.948Z,9.54
2018-09-26T20:33:21.198Z,9.53
2018-09-26T20:35:50.663Z,9.51
2018-09-26T20:38:19.813Z,9.49
2018-09-26T20:40:48.973Z,9.45
2018-09-26T20:43:18.130Z,9.39
2018-09-26T20:45:49.855Z,9.39
2018-09-26T20:48:19.083Z,9.36
2018-09-26T20:50:48.681Z,9.34
2018-09-26T20:53:18.148Z,9.29
2018-09-26T20:55:47.646Z,9.27
2018-09-26T20:58:16.920Z,9.22
2018-09-26T21:00:46.262Z,9.18
2018-09-26T21:03:15.445Z,9.13
2018-09-26T21:05:44.725Z,9.09
2018-09-26T21:08:14.178Z,8.99
2018-09-26T21:10:43.439Z,8.94
2018-09-26T21:13:12.821Z,8.92
2018-09-26T21:15:43.122Z,8.92
2018-09-26T21:18:12.261Z,8.90
2018-09-26T21:20:41.397Z,8.87
2018-09-26T21:23:10.614Z,8.88
2018-09-26T21:25:39.789Z,8.88
2018-09-26T21:28:09.156Z,8.84
2018-09-26T21:30:38.397Z,8.81
2018-09-26T21:33:08.182Z,8.79
2018-09-26T21:35:37.303Z,8.77
2018-09-26T21:38:06.453Z,8.71
2018-09-26T21:40:35.622Z,8.69
2018-09-26T21:43:05.147Z,8.70
2018-09-26T21:45:34.323Z,8.70
2018-09-26T21:48:03.486Z,8.68
2018-09-26T21:50:34.237Z,8.67
2018-09-26T21:53:04.282Z,8.59
2018-09-26T21:55:33.418Z,8.58
2018-09-26T21:58:03.344Z,8.56
2018-09-26T22:00:32.758Z,8.56
2018-09-26T22:03:03.186Z,8.55
2018-09-26T22:05:32.352Z,8.46
2018-09-26T22:08:01.745Z,8.42
2018-09-26T22:10:30.881Z,8.36
2018-09-26T22:13:00.081Z,8.24
2018-09-26T22:15:29.265Z,8.21
2018-09-26T22:17:58.452Z,8.14
2018-09-26T22:20:27.655Z,8.23
2018-09-26T22:22:57.087Z,8.24
2018-09-26T22:25:26.237Z,8.24
2018-09-26T22:27:55.389Z,8.24
2018-09-26T22:30:24.590Z,8.21
2018-09-26T22:32:53.723Z,8.20
2018-09-26T22:35:30.969Z,8.19
2018-09-26T22:38:11.420Z,8.20
2018-09-26T22:40:41.025Z,8.20
2018-09-26T22:43:10.170Z,8.19
2018-09-26T22:45:39.553Z,8.19
2018-09-26T22:48:08.710Z,8.18
2018-09-26T22:50:38.381Z,8.18
2018-09-26T22:53:08.598Z,8.20
2018-09-26T22:55:38.380Z,8.21
2018-09-26T22:58:07.539Z,8.20
2018-09-26T23:00:36.657Z,8.20
2018-09-26T23:03:06.028Z,8.16
2018-09-26T23:05:35.222Z,8.13
2018-09-26T23:08:04.877Z,8.11
2018-09-26T23:10:34.039Z,8.03
2018-09-26T23:13:07.066Z,7.98
2018-09-26T23:15:36.430Z,7.92
2018-09-26T23:18:05.596Z,7.85
2018-09-26T23:20:34.943Z,7.81
2018-09-26T23:23:04.061Z,7.83
2018-09-26T23:25:33.245Z,7.86
2018-09-26T23:28:02.410Z,7.89
2018-09-26T23:30:31.558Z,7.89
2018-09-26T23:33:00.702Z,7.90
2018-09-26T23:35:29.878Z,7.87
2018-09-26T23:38:00.018Z,7.85
2018-09-26T23:40:29.514Z,7.85
2018-09-26T23:42:58.699Z,7.87
2018-09-26T23:45:27.871Z,7.90
2018-09-26T23:47:57.485Z,7.92
2018-09-26T23:50:26.801Z,7.92
2018-09-26T23:52:56.002Z,7.91
2018-09-26T23:55:25.490Z,7.93
2018-09-26T23:57:54.608Z,7.95
